ITY120P LIMC-LGSK
Flight info
| Callsign | ITY120P |
|---|---|
| Flight time | 1h 58m |
| Altitude | 35000 |
| Route | VAKON DCT IBUPU DCT NIKOL DCT TAZ DCT MAVAR DCT TALAS UN130 TSL |
| Aircraft | A320/M-SDE3FGHIRWY/LB1 |
Departure
| Time | 2026-04-23 16:39 |
|---|---|
| Airport | Milan Malpensa International Airport (LIMC) |
Arrival
| Time | 2026-04-23 18:37 |
|---|---|
| Airport | Skiathos Island National Airport (LGSK) |
| Time | Latitude | Longitude | Altitude | Speed | Heading |
|---|---|---|---|---|---|
| 2026-04-23 16:21 | 45.62910 | 8.71869 | 749 ft | 0 kts | 79° |
| 2026-04-23 16:34 | 45.62914 | 8.71902 | 751 ft | 8 kts | 79° |
| 2026-04-23 16:35 | 45.62964 | 8.71946 | 751 ft | 13 kts | 355° |
| 2026-04-23 16:35 | 45.63072 | 8.71914 | 748 ft | 19 kts | 349° |
| 2026-04-23 16:35 | 45.63222 | 8.71873 | 749 ft | 20 kts | 349° |
| 2026-04-23 16:35 | 45.63336 | 8.71936 | 752 ft | 18 kts | 24° |
| 2026-04-23 16:36 | 45.63480 | 8.71910 | 748 ft | 24 kts | 351° |
| 2026-04-23 16:36 | 45.63659 | 8.71869 | 751 ft | 26 kts | 350° |
| 2026-04-23 16:36 | 45.63839 | 8.71814 | 752 ft | 27 kts | 349° |
| 2026-04-23 16:36 | 45.64028 | 8.71763 | 751 ft | 28 kts | 349° |
| 2026-04-23 16:37 | 45.64224 | 8.71709 | 750 ft | 29 kts | 349° |
| 2026-04-23 16:37 | 45.64414 | 8.71661 | 749 ft | 26 kts | 353° |
| 2026-04-23 16:37 | 45.64484 | 8.71843 | 745 ft | 25 kts | 110° |
| 2026-04-23 16:37 | 45.64396 | 8.71919 | 742 ft | 0 kts | 168° |
| 2026-04-23 16:38 | 45.64382 | 8.71923 | 743 ft | 18 kts | 168° |
| 2026-04-23 16:38 | 45.63998 | 8.72028 | 746 ft | 91 kts | 170° |
| 2026-04-23 16:38 | 45.63217 | 8.72235 | 749 ft | 144 kts | 169° |
| 2026-04-23 16:39 | 45.62131 | 8.72528 | 1060 ft | 163 kts | 171° |
| 2026-04-23 16:39 | 45.61009 | 8.72820 | 1716 ft | 164 kts | 173° |
| 2026-04-23 16:39 | 45.59861 | 8.73114 | 2218 ft | 175 kts | 173° |
| 2026-04-23 16:39 | 45.58584 | 8.73432 | 2465 ft | 198 kts | 172° |
| 2026-04-23 16:40 | 45.57158 | 8.73637 | 2693 ft | 221 kts | 182° |
| 2026-04-23 16:40 | 45.55559 | 8.73601 | 3244 ft | 235 kts | 182° |
| 2026-04-23 16:40 | 45.53899 | 8.73564 | 3989 ft | 241 kts | 181° |
| 2026-04-23 16:40 | 45.52201 | 8.73528 | 4776 ft | 247 kts | 181° |
| 2026-04-23 16:41 | 45.50489 | 8.73874 | 5435 ft | 254 kts | 156° |
| 2026-04-23 16:41 | 45.49037 | 8.75289 | 6140 ft | 256 kts | 128° |
| 2026-04-23 16:41 | 45.48179 | 8.77453 | 6888 ft | 255 kts | 103° |
| 2026-04-23 16:41 | 45.48049 | 8.79941 | 7641 ft | 253 kts | 78° |
| 2026-04-23 16:42 | 45.48679 | 8.82255 | 8412 ft | 252 kts | 53° |
| 2026-04-23 16:42 | 45.49839 | 8.84125 | 9196 ft | 253 kts | 45° |
| 2026-04-23 16:42 | 45.51060 | 8.85951 | 9994 ft | 256 kts | 45° |
| 2026-04-23 16:42 | 45.52295 | 8.87796 | 10715 ft | 258 kts | 43° |
| 2026-04-23 16:43 | 45.53660 | 8.89463 | 11424 ft | 260 kts | 39° |
| 2026-04-23 16:43 | 45.55060 | 8.91111 | 12158 ft | 262 kts | 39° |
| 2026-04-23 16:43 | 45.56474 | 8.92771 | 12870 ft | 264 kts | 39° |
| 2026-04-23 16:43 | 45.57920 | 8.94454 | 13355 ft | 277 kts | 39° |
| 2026-04-23 16:44 | 45.59479 | 8.96261 | 13509 ft | 301 kts | 38° |
| 2026-04-23 16:44 | 45.61168 | 8.98206 | 13646 ft | 323 kts | 39° |
| 2026-04-23 16:44 | 45.62737 | 9.00569 | 13775 ft | 344 kts | 56° |
| 2026-04-23 16:44 | 45.63678 | 9.03800 | 13919 ft | 365 kts | 78° |
| 2026-04-23 16:45 | 45.63655 | 9.07488 | 14225 ft | 380 kts | 100° |
| 2026-04-23 16:45 | 45.63025 | 9.11177 | 14744 ft | 385 kts | 102° |
| 2026-04-23 16:45 | 45.62362 | 9.14899 | 15316 ft | 388 kts | 102° |
| 2026-04-23 16:45 | 45.61688 | 9.18654 | 15873 ft | 391 kts | 102° |
| 2026-04-23 16:46 | 45.61010 | 9.22427 | 16458 ft | 394 kts | 102° |
| 2026-04-23 16:46 | 45.60323 | 9.26236 | 17026 ft | 398 kts | 102° |
| 2026-04-23 16:46 | 45.59631 | 9.30074 | 17585 ft | 401 kts | 102° |
| 2026-04-23 16:46 | 45.58943 | 9.33896 | 18131 ft | 404 kts | 102° |
| 2026-04-23 16:47 | 45.58234 | 9.37847 | 18645 ft | 407 kts | 102° |
| 2026-04-23 16:47 | 45.57536 | 9.41727 | 19107 ft | 410 kts | 102° |
| 2026-04-23 16:47 | 45.56823 | 9.45680 | 19573 ft | 413 kts | 102° |
| 2026-04-23 16:47 | 45.56106 | 9.49659 | 20014 ft | 415 kts | 102° |
| 2026-04-23 16:48 | 45.55398 | 9.53664 | 20448 ft | 418 kts | 101° |
| 2026-04-23 16:48 | 45.54726 | 9.57705 | 20882 ft | 420 kts | 101° |
| 2026-04-23 16:48 | 45.54074 | 9.61778 | 21300 ft | 422 kts | 100° |
| 2026-04-23 16:48 | 45.53644 | 9.64492 | 21567 ft | 424 kts | 100° |
| 2026-04-23 16:49 | 45.52992 | 9.68602 | 21965 ft | 427 kts | 101° |
| 2026-04-23 16:49 | 45.52328 | 9.72737 | 22356 ft | 429 kts | 101° |
| 2026-04-23 16:49 | 45.51429 | 9.78248 | 22857 ft | 432 kts | 101° |
| 2026-04-23 16:49 | 45.50741 | 9.82424 | 23226 ft | 434 kts | 101° |
| 2026-04-23 16:50 | 45.50044 | 9.86627 | 23584 ft | 437 kts | 101° |
| 2026-04-23 16:50 | 45.49570 | 9.89474 | 23804 ft | 438 kts | 101° |
| 2026-04-23 16:50 | 45.48863 | 9.93711 | 24123 ft | 440 kts | 101° |
| 2026-04-23 16:50 | 45.48120 | 9.97883 | 24433 ft | 442 kts | 105° |
| 2026-04-23 16:51 | 45.46977 | 10.01973 | 24743 ft | 446 kts | 114° |
| 2026-04-23 16:51 | 45.45453 | 10.05840 | 25047 ft | 449 kts | 117° |
| 2026-04-23 16:51 | 45.43887 | 10.09687 | 25341 ft | 450 kts | 117° |
| 2026-04-23 16:51 | 45.42318 | 10.13556 | 25637 ft | 451 kts | 117° |
| 2026-04-23 16:52 | 45.40246 | 10.18689 | 25985 ft | 453 kts | 117° |
| 2026-04-23 16:52 | 45.39185 | 10.21315 | 26163 ft | 454 kts | 117° |
| 2026-04-23 16:52 | 45.37625 | 10.25170 | 26409 ft | 455 kts | 117° |
| 2026-04-23 16:52 | 45.36024 | 10.29108 | 26663 ft | 456 kts | 117° |
| 2026-04-23 16:53 | 45.34433 | 10.33013 | 26881 ft | 457 kts | 117° |
| 2026-04-23 16:53 | 45.32857 | 10.36880 | 27094 ft | 458 kts | 116° |
| 2026-04-23 16:53 | 45.31262 | 10.40791 | 27403 ft | 457 kts | 116° |
| 2026-04-23 16:53 | 45.29668 | 10.44691 | 27730 ft | 456 kts | 116° |
| 2026-04-23 16:54 | 45.28075 | 10.48577 | 28091 ft | 455 kts | 116° |
| 2026-04-23 16:54 | 45.26483 | 10.52451 | 28386 ft | 454 kts | 116° |
| 2026-04-23 16:54 | 45.24888 | 10.56321 | 28695 ft | 454 kts | 116° |
| 2026-04-23 16:54 | 45.23299 | 10.60177 | 29038 ft | 452 kts | 116° |
| 2026-04-23 16:55 | 45.21718 | 10.64025 | 29382 ft | 451 kts | 116° |
| 2026-04-23 16:55 | 45.20161 | 10.67814 | 29728 ft | 450 kts | 116° |
| 2026-04-23 16:55 | 45.18589 | 10.71637 | 30087 ft | 448 kts | 116° |
| 2026-04-23 16:55 | 45.17115 | 10.75506 | 30410 ft | 444 kts | 110° |
| 2026-04-23 16:56 | 45.15877 | 10.79506 | 30686 ft | 443 kts | 110° |
| 2026-04-23 16:56 | 45.14651 | 10.83501 | 30951 ft | 443 kts | 109° |
| 2026-04-23 16:56 | 45.13426 | 10.87503 | 31181 ft | 443 kts | 109° |
| 2026-04-23 16:56 | 45.12200 | 10.91508 | 31428 ft | 443 kts | 109° |
| 2026-04-23 16:57 | 45.10974 | 10.95508 | 31683 ft | 443 kts | 109° |
| 2026-04-23 16:57 | 45.09744 | 10.99503 | 31957 ft | 442 kts | 109° |
| 2026-04-23 16:57 | 45.08528 | 11.03437 | 32244 ft | 442 kts | 109° |
| 2026-04-23 16:57 | 45.07297 | 11.07413 | 32521 ft | 441 kts | 110° |
| 2026-04-23 16:58 | 45.06063 | 11.11385 | 32774 ft | 441 kts | 110° |
| 2026-04-23 16:58 | 45.04830 | 11.15348 | 33047 ft | 440 kts | 110° |
| 2026-04-23 16:58 | 45.03599 | 11.19307 | 33320 ft | 439 kts | 110° |
| 2026-04-23 16:58 | 45.02369 | 11.23258 | 33593 ft | 439 kts | 110° |
| 2026-04-23 16:59 | 45.01139 | 11.27202 | 33846 ft | 438 kts | 110° |
| 2026-04-23 16:59 | 44.99908 | 11.31140 | 34113 ft | 438 kts | 110° |
| 2026-04-23 16:59 | 44.98693 | 11.35019 | 34342 ft | 438 kts | 110° |
| 2026-04-23 16:59 | 44.97464 | 11.38943 | 34571 ft | 437 kts | 110° |
| 2026-04-23 17:00 | 44.96235 | 11.42869 | 34800 ft | 437 kts | 110° |
| 2026-04-23 17:00 | 44.95006 | 11.46786 | 35010 ft | 436 kts | 110° |
| 2026-04-23 17:00 | 44.93774 | 11.50701 | 35138 ft | 438 kts | 110° |
| 2026-04-23 17:00 | 44.92531 | 11.54649 | 35151 ft | 442 kts | 110° |
| 2026-04-23 17:01 | 44.90018 | 11.62603 | 35149 ft | 445 kts | 110° |
| 2026-04-23 17:01 | 44.87503 | 11.70526 | 35145 ft | 446 kts | 110° |
| 2026-04-23 17:02 | 44.84970 | 11.78494 | 35151 ft | 446 kts | 110° |
| 2026-04-23 17:02 | 44.82428 | 11.86457 | 35169 ft | 446 kts | 110° |
| 2026-04-23 17:03 | 44.79874 | 11.94421 | 35156 ft | 446 kts | 110° |
| 2026-04-23 17:03 | 44.77340 | 12.02324 | 35150 ft | 446 kts | 110° |
| 2026-04-23 17:04 | 44.74783 | 12.10279 | 35149 ft | 446 kts | 110° |
| 2026-04-23 17:04 | 44.72226 | 12.18227 | 35157 ft | 446 kts | 111° |
| 2026-04-23 17:05 | 44.69657 | 12.26172 | 35170 ft | 447 kts | 111° |
| 2026-04-23 17:05 | 44.67074 | 12.34116 | 35160 ft | 447 kts | 111° |
| 2026-04-23 17:06 | 44.64507 | 12.41996 | 35156 ft | 447 kts | 111° |
| 2026-04-23 17:06 | 44.61919 | 12.49930 | 35159 ft | 447 kts | 111° |
| 2026-04-23 17:07 | 44.59315 | 12.57855 | 35166 ft | 447 kts | 111° |
| 2026-04-23 17:07 | 44.56705 | 12.65779 | 35160 ft | 447 kts | 111° |
| 2026-04-23 17:08 | 44.54096 | 12.73700 | 35159 ft | 448 kts | 111° |
| 2026-04-23 17:08 | 44.51483 | 12.81616 | 35156 ft | 448 kts | 111° |
| 2026-04-23 17:09 | 44.48874 | 12.89469 | 35172 ft | 448 kts | 111° |
| 2026-04-23 17:09 | 44.46236 | 12.97376 | 35161 ft | 448 kts | 111° |
| 2026-04-23 17:10 | 44.43599 | 13.05286 | 35163 ft | 449 kts | 111° |
| 2026-04-23 17:10 | 44.40954 | 13.13189 | 35153 ft | 449 kts | 111° |
| 2026-04-23 17:11 | 44.38311 | 13.21091 | 35172 ft | 449 kts | 111° |
| 2026-04-23 17:11 | 44.35657 | 13.28989 | 35158 ft | 449 kts | 111° |
| 2026-04-23 17:12 | 44.33008 | 13.36839 | 35149 ft | 450 kts | 111° |
| 2026-04-23 17:12 | 44.30333 | 13.44735 | 35145 ft | 450 kts | 111° |
| 2026-04-23 17:13 | 44.27649 | 13.52627 | 35148 ft | 450 kts | 111° |
| 2026-04-23 17:13 | 44.24959 | 13.60514 | 35159 ft | 451 kts | 112° |
| 2026-04-23 17:14 | 44.22266 | 13.68410 | 35154 ft | 451 kts | 112° |
| 2026-04-23 17:14 | 44.19576 | 13.76237 | 35152 ft | 451 kts | 112° |
| 2026-04-23 17:15 | 44.16833 | 13.84100 | 35150 ft | 451 kts | 112° |
| 2026-04-23 17:15 | 44.14082 | 13.91960 | 35169 ft | 452 kts | 112° |
| 2026-04-23 17:16 | 44.11333 | 13.99828 | 35154 ft | 452 kts | 112° |
| 2026-04-23 17:16 | 44.08608 | 14.07643 | 35149 ft | 452 kts | 112° |
| 2026-04-23 17:17 | 44.05858 | 14.15499 | 35145 ft | 452 kts | 112° |
| 2026-04-23 17:17 | 44.03093 | 14.23357 | 35167 ft | 452 kts | 112° |
| 2026-04-23 17:18 | 43.98933 | 14.35113 | 35158 ft | 452 kts | 112° |
| 2026-04-23 17:19 | 43.96160 | 14.42944 | 35149 ft | 452 kts | 112° |
| 2026-04-23 17:19 | 43.93399 | 14.50716 | 35144 ft | 452 kts | 112° |
| 2026-04-23 17:20 | 43.90611 | 14.58531 | 35142 ft | 452 kts | 112° |
| 2026-04-23 17:21 | 43.85019 | 14.74136 | 35134 ft | 452 kts | 113° |
| 2026-04-23 17:21 | 43.80833 | 14.85775 | 35134 ft | 452 kts | 113° |
| 2026-04-23 17:22 | 43.76614 | 14.97448 | 35152 ft | 452 kts | 113° |
| 2026-04-23 17:23 | 43.72383 | 15.09083 | 35146 ft | 451 kts | 113° |
| 2026-04-23 17:24 | 43.68153 | 15.20698 | 35141 ft | 451 kts | 113° |
| 2026-04-23 17:24 | 43.63926 | 15.32235 | 35154 ft | 450 kts | 113° |
| 2026-04-23 17:25 | 43.59687 | 15.43797 | 35146 ft | 450 kts | 113° |
| 2026-04-23 17:26 | 43.54012 | 15.59142 | 35144 ft | 449 kts | 113° |
| 2026-04-23 17:27 | 43.49771 | 15.70576 | 35142 ft | 448 kts | 113° |
| 2026-04-23 17:27 | 43.46926 | 15.78203 | 35133 ft | 448 kts | 113° |
| 2026-04-23 17:28 | 43.44083 | 15.85821 | 35117 ft | 447 kts | 113° |
| 2026-04-23 17:28 | 43.41237 | 15.93429 | 35104 ft | 447 kts | 113° |
| 2026-04-23 17:29 | 43.38382 | 16.01030 | 35092 ft | 447 kts | 113° |
| 2026-04-23 17:30 | 43.34116 | 16.12355 | 35084 ft | 447 kts | 113° |
| 2026-04-23 17:30 | 43.29829 | 16.23704 | 35073 ft | 446 kts | 113° |
| 2026-04-23 17:31 | 43.26965 | 16.31263 | 35075 ft | 446 kts | 113° |
| 2026-04-23 17:31 | 43.24090 | 16.38812 | 35079 ft | 446 kts | 114° |
| 2026-04-23 17:32 | 43.21231 | 16.46303 | 35078 ft | 446 kts | 113° |
| 2026-04-23 17:32 | 43.18355 | 16.53832 | 35079 ft | 446 kts | 114° |
| 2026-04-23 17:33 | 43.15469 | 16.61352 | 35080 ft | 446 kts | 114° |
| 2026-04-23 17:33 | 43.12580 | 16.68854 | 35072 ft | 446 kts | 114° |
| 2026-04-23 17:34 | 43.09687 | 16.76352 | 35083 ft | 445 kts | 114° |
| 2026-04-23 17:35 | 43.05363 | 16.87522 | 35079 ft | 445 kts | 114° |
| 2026-04-23 17:35 | 43.01015 | 16.98733 | 35077 ft | 445 kts | 114° |
| 2026-04-23 17:36 | 42.98118 | 17.06194 | 35077 ft | 445 kts | 114° |
| 2026-04-23 17:36 | 42.95218 | 17.13597 | 35076 ft | 445 kts | 114° |
| 2026-04-23 17:37 | 42.92299 | 17.21035 | 35064 ft | 444 kts | 114° |
| 2026-04-23 17:38 | 42.87923 | 17.32165 | 35084 ft | 443 kts | 114° |
| 2026-04-23 17:38 | 42.85007 | 17.39561 | 35077 ft | 443 kts | 114° |
| 2026-04-23 17:39 | 42.82102 | 17.46936 | 35085 ft | 441 kts | 114° |
| 2026-04-23 17:39 | 42.79214 | 17.54248 | 35080 ft | 441 kts | 114° |
| 2026-04-23 17:40 | 42.76298 | 17.61572 | 35069 ft | 440 kts | 114° |
| 2026-04-23 17:40 | 42.73376 | 17.68892 | 35065 ft | 440 kts | 114° |
| 2026-04-23 17:41 | 42.70456 | 17.76208 | 35076 ft | 440 kts | 114° |
| 2026-04-23 17:41 | 42.66075 | 17.87148 | 35063 ft | 439 kts | 114° |
| 2026-04-23 17:42 | 42.61707 | 17.98013 | 35045 ft | 439 kts | 114° |
| 2026-04-23 17:43 | 42.58777 | 18.05282 | 35037 ft | 439 kts | 114° |
| 2026-04-23 17:43 | 42.55847 | 18.12535 | 35044 ft | 438 kts | 114° |
| 2026-04-23 17:44 | 42.52930 | 18.19719 | 35046 ft | 437 kts | 114° |
| 2026-04-23 17:44 | 42.48576 | 18.30564 | 35042 ft | 436 kts | 112° |
| 2026-04-23 17:45 | 42.44562 | 18.41595 | 35039 ft | 435 kts | 111° |
| 2026-04-23 17:46 | 42.40565 | 18.52622 | 35033 ft | 435 kts | 112° |
| 2026-04-23 17:46 | 42.37849 | 18.59944 | 35030 ft | 435 kts | 112° |
| 2026-04-23 17:47 | 42.35139 | 18.67205 | 35030 ft | 436 kts | 112° |
| 2026-04-23 17:48 | 42.31054 | 18.78184 | 35048 ft | 436 kts | 112° |
| 2026-04-23 17:48 | 42.28328 | 18.85493 | 35046 ft | 435 kts | 112° |
| 2026-04-23 17:49 | 42.25604 | 18.92783 | 35042 ft | 435 kts | 112° |
| 2026-04-23 17:49 | 42.22898 | 19.00007 | 35053 ft | 434 kts | 112° |
| 2026-04-23 17:50 | 42.20165 | 19.07276 | 35050 ft | 434 kts | 112° |
| 2026-04-23 17:50 | 42.16062 | 19.18148 | 35050 ft | 434 kts | 113° |
| 2026-04-23 17:51 | 42.13323 | 19.25383 | 35041 ft | 433 kts | 113° |
| 2026-04-23 17:52 | 42.09226 | 19.36164 | 35036 ft | 433 kts | 113° |
| 2026-04-23 17:52 | 42.05109 | 19.46979 | 35037 ft | 433 kts | 113° |
| 2026-04-23 17:53 | 42.00976 | 19.57792 | 35028 ft | 434 kts | 113° |
| 2026-04-23 17:54 | 41.98211 | 19.64998 | 35024 ft | 434 kts | 113° |
| 2026-04-23 17:54 | 41.94067 | 19.75749 | 35025 ft | 434 kts | 113° |
| 2026-04-23 17:55 | 41.89897 | 19.86540 | 35039 ft | 434 kts | 113° |
| 2026-04-23 17:56 | 41.87117 | 19.93724 | 35038 ft | 433 kts | 113° |
| 2026-04-23 17:56 | 41.82944 | 20.04460 | 35047 ft | 432 kts | 114° |
| 2026-04-23 17:57 | 41.80181 | 20.11556 | 35044 ft | 432 kts | 114° |
| 2026-04-23 17:58 | 41.76006 | 20.22244 | 35054 ft | 432 kts | 114° |
| 2026-04-23 17:58 | 41.73209 | 20.29363 | 35042 ft | 432 kts | 114° |
| 2026-04-23 17:59 | 41.70414 | 20.36467 | 35036 ft | 431 kts | 114° |
| 2026-04-23 17:59 | 41.67632 | 20.43521 | 35033 ft | 432 kts | 114° |
| 2026-04-23 18:00 | 41.64821 | 20.50617 | 35042 ft | 432 kts | 114° |
| 2026-04-23 18:00 | 41.62006 | 20.57718 | 35044 ft | 433 kts | 114° |
| 2026-04-23 18:01 | 41.59188 | 20.64817 | 35048 ft | 433 kts | 114° |
| 2026-04-23 18:01 | 41.56365 | 20.71921 | 35048 ft | 433 kts | 114° |
| 2026-04-23 18:02 | 41.54013 | 20.77820 | 35043 ft | 433 kts | 114° |
| 2026-04-23 18:02 | 41.50714 | 20.86072 | 35052 ft | 434 kts | 114° |
| 2026-04-23 18:03 | 41.47871 | 20.93170 | 35060 ft | 434 kts | 114° |
| 2026-04-23 18:03 | 41.45017 | 21.00260 | 35055 ft | 434 kts | 114° |
| 2026-04-23 18:04 | 41.42178 | 21.07308 | 35046 ft | 435 kts | 114° |
| 2026-04-23 18:04 | 41.39312 | 21.14404 | 35052 ft | 435 kts | 114° |
| 2026-04-23 18:05 | 41.36436 | 21.21499 | 35040 ft | 435 kts | 114° |
| 2026-04-23 18:05 | 41.33565 | 21.28596 | 35038 ft | 436 kts | 114° |
| 2026-04-23 18:06 | 41.30678 | 21.35697 | 35036 ft | 436 kts | 114° |
| 2026-04-23 18:06 | 41.27806 | 21.42742 | 35036 ft | 436 kts | 114° |
| 2026-04-23 18:07 | 41.24909 | 21.49823 | 35033 ft | 436 kts | 114° |
| 2026-04-23 18:07 | 41.22013 | 21.56894 | 35035 ft | 436 kts | 114° |
| 2026-04-23 18:08 | 41.19598 | 21.62775 | 35037 ft | 436 kts | 114° |
| 2026-04-23 18:08 | 41.16208 | 21.71033 | 35036 ft | 436 kts | 114° |
| 2026-04-23 18:09 | 41.13311 | 21.78050 | 35040 ft | 437 kts | 115° |
| 2026-04-23 18:09 | 41.10385 | 21.85110 | 35034 ft | 437 kts | 115° |
| 2026-04-23 18:09 | 41.08917 | 21.88653 | 34733 ft | 440 kts | 114° |
| 2026-04-23 18:10 | 41.07369 | 21.92156 | 34376 ft | 442 kts | 120° |
| 2026-04-23 18:10 | 41.05534 | 21.95438 | 34029 ft | 443 kts | 122° |
| 2026-04-23 18:10 | 41.03674 | 21.98691 | 33591 ft | 443 kts | 123° |
| 2026-04-23 18:10 | 41.01489 | 22.01595 | 33193 ft | 451 kts | 138° |
| 2026-04-23 18:11 | 40.98913 | 22.03988 | 32796 ft | 453 kts | 140° |
| 2026-04-23 18:11 | 40.96308 | 22.06343 | 32401 ft | 453 kts | 140° |
| 2026-04-23 18:11 | 40.93697 | 22.08680 | 32005 ft | 453 kts | 140° |
| 2026-04-23 18:11 | 40.91085 | 22.11012 | 31618 ft | 453 kts | 140° |
| 2026-04-23 18:12 | 40.88513 | 22.13313 | 31258 ft | 452 kts | 140° |
| 2026-04-23 18:12 | 40.85910 | 22.15645 | 31004 ft | 451 kts | 140° |
| 2026-04-23 18:12 | 40.83311 | 22.17974 | 31036 ft | 451 kts | 140° |
| 2026-04-23 18:13 | 40.78117 | 22.22626 | 31023 ft | 452 kts | 140° |
| 2026-04-23 18:13 | 40.72911 | 22.27279 | 31022 ft | 452 kts | 140° |
| 2026-04-23 18:13 | 40.70322 | 22.29581 | 30610 ft | 448 kts | 140° |
| 2026-04-23 18:14 | 40.67738 | 22.31879 | 29617 ft | 447 kts | 139° |
| 2026-04-23 18:14 | 40.65171 | 22.34166 | 28766 ft | 446 kts | 139° |
| 2026-04-23 18:14 | 40.62629 | 22.36431 | 28201 ft | 449 kts | 139° |
| 2026-04-23 18:14 | 40.60036 | 22.38740 | 27712 ft | 452 kts | 139° |
| 2026-04-23 18:15 | 40.57425 | 22.41060 | 27235 ft | 453 kts | 140° |
| 2026-04-23 18:15 | 40.54808 | 22.43380 | 26766 ft | 455 kts | 140° |
| 2026-04-23 18:15 | 40.52183 | 22.45703 | 26316 ft | 456 kts | 140° |
| 2026-04-23 18:15 | 40.49548 | 22.48031 | 25865 ft | 457 kts | 140° |
| 2026-04-23 18:16 | 40.46908 | 22.50364 | 25419 ft | 458 kts | 140° |
| 2026-04-23 18:16 | 40.44265 | 22.52697 | 24984 ft | 459 kts | 140° |
| 2026-04-23 18:16 | 40.41611 | 22.55038 | 24553 ft | 460 kts | 140° |
| 2026-04-23 18:17 | 40.36324 | 22.59692 | 23705 ft | 460 kts | 140° |
| 2026-04-23 18:17 | 40.33668 | 22.62019 | 23255 ft | 457 kts | 140° |
| 2026-04-23 18:17 | 40.31033 | 22.64329 | 22758 ft | 454 kts | 140° |
| 2026-04-23 18:17 | 40.28416 | 22.66630 | 22269 ft | 452 kts | 140° |
| 2026-04-23 18:18 | 40.25812 | 22.68921 | 21795 ft | 450 kts | 140° |
| 2026-04-23 18:18 | 40.23219 | 22.71197 | 21320 ft | 448 kts | 141° |
| 2026-04-23 18:18 | 40.20635 | 22.73458 | 20849 ft | 446 kts | 141° |
| 2026-04-23 18:18 | 40.18063 | 22.75703 | 20391 ft | 444 kts | 141° |
| 2026-04-23 18:19 | 40.15498 | 22.77942 | 19939 ft | 442 kts | 142° |
| 2026-04-23 18:19 | 40.12947 | 22.80166 | 19503 ft | 439 kts | 142° |
| 2026-04-23 18:19 | 40.10412 | 22.82376 | 19065 ft | 437 kts | 143° |
| 2026-04-23 18:19 | 40.07919 | 22.84550 | 18649 ft | 436 kts | 144° |
| 2026-04-23 18:20 | 40.05393 | 22.86755 | 18200 ft | 436 kts | 144° |
| 2026-04-23 18:20 | 40.02876 | 22.88950 | 17695 ft | 434 kts | 144° |
| 2026-04-23 18:20 | 40.00373 | 22.91127 | 17216 ft | 431 kts | 144° |
| 2026-04-23 18:20 | 39.97882 | 22.93290 | 16734 ft | 429 kts | 144° |
| 2026-04-23 18:21 | 39.95406 | 22.95438 | 16258 ft | 426 kts | 144° |
| 2026-04-23 18:21 | 39.92947 | 22.97569 | 15793 ft | 423 kts | 144° |
| 2026-04-23 18:21 | 39.90505 | 22.99682 | 15333 ft | 420 kts | 145° |
| 2026-04-23 18:21 | 39.88078 | 23.01780 | 14881 ft | 418 kts | 145° |
| 2026-04-23 18:22 | 39.85692 | 23.03841 | 14438 ft | 415 kts | 145° |
| 2026-04-23 18:22 | 39.83294 | 23.05912 | 14004 ft | 413 kts | 145° |
| 2026-04-23 18:22 | 39.80905 | 23.07974 | 13534 ft | 411 kts | 145° |
| 2026-04-23 18:22 | 39.78525 | 23.10025 | 13047 ft | 409 kts | 145° |
| 2026-04-23 18:23 | 39.76955 | 23.11378 | 12731 ft | 408 kts | 145° |
| 2026-04-23 18:23 | 39.71469 | 23.16107 | 11637 ft | 402 kts | 145° |
| 2026-04-23 18:24 | 39.66830 | 23.20093 | 10725 ft | 397 kts | 145° |
| 2026-04-23 18:24 | 39.64530 | 23.22059 | 10396 ft | 395 kts | 145° |
| 2026-04-23 18:24 | 39.62234 | 23.24023 | 10147 ft | 394 kts | 145° |
| 2026-04-23 18:25 | 39.57812 | 23.27804 | 9786 ft | 365 kts | 145° |
| 2026-04-23 18:25 | 39.55744 | 23.29568 | 9648 ft | 348 kts | 145° |
| 2026-04-23 18:25 | 39.53769 | 23.31251 | 9513 ft | 332 kts | 145° |
| 2026-04-23 18:25 | 39.51882 | 23.32863 | 9379 ft | 318 kts | 144° |
| 2026-04-23 18:26 | 39.50071 | 23.34411 | 9246 ft | 306 kts | 144° |
| 2026-04-23 18:26 | 39.48327 | 23.35901 | 9113 ft | 295 kts | 144° |
| 2026-04-23 18:26 | 39.46626 | 23.37357 | 8979 ft | 292 kts | 144° |
| 2026-04-23 18:26 | 39.44934 | 23.38805 | 8847 ft | 291 kts | 144° |
| 2026-04-23 18:27 | 39.43244 | 23.40249 | 8714 ft | 291 kts | 144° |
| 2026-04-23 18:27 | 39.41557 | 23.41686 | 8584 ft | 290 kts | 144° |
| 2026-04-23 18:27 | 39.39895 | 23.43101 | 8459 ft | 290 kts | 145° |
| 2026-04-23 18:27 | 39.38213 | 23.44532 | 8329 ft | 289 kts | 145° |
| 2026-04-23 18:28 | 39.36536 | 23.45959 | 8191 ft | 288 kts | 145° |
| 2026-04-23 18:28 | 39.34859 | 23.47384 | 8066 ft | 288 kts | 145° |
| 2026-04-23 18:28 | 39.33187 | 23.48801 | 7931 ft | 287 kts | 145° |
| 2026-04-23 18:28 | 39.31517 | 23.50211 | 7805 ft | 287 kts | 145° |
| 2026-04-23 18:29 | 39.29850 | 23.51621 | 7665 ft | 286 kts | 145° |
| 2026-04-23 18:29 | 39.28189 | 23.53030 | 7548 ft | 285 kts | 145° |
| 2026-04-23 18:29 | 39.26529 | 23.54438 | 7425 ft | 285 kts | 145° |
| 2026-04-23 18:29 | 39.24876 | 23.55839 | 7296 ft | 284 kts | 145° |
| 2026-04-23 18:30 | 39.23223 | 23.57239 | 7138 ft | 283 kts | 145° |
| 2026-04-23 18:30 | 39.21592 | 23.58619 | 6819 ft | 278 kts | 145° |
| 2026-04-23 18:30 | 39.19949 | 23.59917 | 6466 ft | 277 kts | 154° |
| 2026-04-23 18:30 | 39.18126 | 23.60532 | 6084 ft | 275 kts | 176° |
| 2026-04-23 18:31 | 39.16244 | 23.60274 | 5703 ft | 272 kts | 197° |
| 2026-04-23 18:31 | 39.14526 | 23.59281 | 5327 ft | 269 kts | 207° |
| 2026-04-23 18:31 | 39.12866 | 23.58192 | 4960 ft | 267 kts | 207° |
| 2026-04-23 18:31 | 39.11222 | 23.57119 | 4604 ft | 263 kts | 207° |
| 2026-04-23 18:32 | 39.09599 | 23.56059 | 4258 ft | 260 kts | 207° |
| 2026-04-23 18:32 | 39.07998 | 23.55015 | 3917 ft | 256 kts | 207° |
| 2026-04-23 18:32 | 39.06420 | 23.53986 | 3588 ft | 253 kts | 207° |
| 2026-04-23 18:32 | 39.04860 | 23.52971 | 3252 ft | 250 kts | 207° |
| 2026-04-23 18:33 | 39.03324 | 23.51962 | 2932 ft | 246 kts | 210° |
| 2026-04-23 18:33 | 39.02166 | 23.50464 | 2725 ft | 234 kts | 248° |
| 2026-04-23 18:33 | 39.02023 | 23.48501 | 2538 ft | 222 kts | 289° |
| 2026-04-23 18:33 | 39.02883 | 23.46973 | 2364 ft | 209 kts | 328° |
| 2026-04-23 18:34 | 39.04198 | 23.46455 | 2213 ft | 195 kts | 2° |
| 2026-04-23 18:34 | 39.05511 | 23.46766 | 2049 ft | 187 kts | 13° |
| 2026-04-23 18:34 | 39.06718 | 23.47122 | 1892 ft | 169 kts | 13° |
| 2026-04-23 18:34 | 39.07804 | 23.47437 | 1773 ft | 150 kts | 12° |
| 2026-04-23 18:35 | 39.08803 | 23.47726 | 1689 ft | 144 kts | 12° |
| 2026-04-23 18:35 | 39.09775 | 23.48008 | 1578 ft | 142 kts | 12° |
| 2026-04-23 18:35 | 39.10736 | 23.48282 | 1449 ft | 141 kts | 12° |
| 2026-04-23 18:35 | 39.11694 | 23.48557 | 1253 ft | 141 kts | 11° |
| 2026-04-23 18:36 | 39.12660 | 23.48762 | 957 ft | 140 kts | 7° |
| 2026-04-23 18:36 | 39.13619 | 23.48891 | 745 ft | 141 kts | 4° |
| 2026-04-23 18:36 | 39.14590 | 23.49023 | 509 ft | 140 kts | 10° |
| 2026-04-23 18:36 | 39.15526 | 23.49379 | 399 ft | 141 kts | 21° |
| 2026-04-23 18:37 | 39.16452 | 23.49804 | 197 ft | 141 kts | 17° |
| 2026-04-23 18:37 | 39.17368 | 23.50226 | 39 ft | 134 kts | 12° |
| 2026-04-23 18:37 | 39.18054 | 23.50483 | 45 ft | 49 kts | 16° |
| 2026-04-23 18:37 | 39.18127 | 23.50546 | 47 ft | 3 kts | 158° |
| 2026-04-23 18:38 | 39.18100 | 23.50539 | 46 ft | 5 kts | 199° |
| 2026-04-23 18:38 | 39.18091 | 23.50535 | 46 ft | 1 kts | 200° |
| 2026-04-23 18:38 | 39.18080 | 23.50530 | 45 ft | 3 kts | 200° |
| 2026-04-23 18:38 | 39.18058 | 23.50520 | 45 ft | 4 kts | 199° |
| 2026-04-23 18:39 | 39.18029 | 23.50507 | 44 ft | 5 kts | 199° |
| 2026-04-23 18:39 | 39.17992 | 23.50489 | 43 ft | 6 kts | 201° |
| 2026-04-23 18:39 | 39.17949 | 23.50463 | 42 ft | 7 kts | 216° |
| 2026-04-23 18:39 | 39.17927 | 23.50408 | 41 ft | 7 kts | 256° |
| 2026-04-23 18:40 | 39.17918 | 23.50348 | 39 ft | 6 kts | 259° |
| 2026-04-23 18:40 | 39.17895 | 23.50316 | 41 ft | 5 kts | 198° |
| 2026-04-23 18:40 | 39.17868 | 23.50304 | 41 ft | 4 kts | 198° |
| 2026-04-23 18:40 | 39.17844 | 23.50296 | 40 ft | 3 kts | 195° |
| 2026-04-23 18:41 | 39.17826 | 23.50289 | 40 ft | 2 kts | 196° |
| 2026-04-23 18:41 | 39.17812 | 23.50284 | 40 ft | 2 kts | 197° |
| 2026-04-23 18:41 | 39.17803 | 23.50279 | 40 ft | 1 kts | 200° |
| 2026-04-23 18:41 | 39.17797 | 23.50277 | 40 ft | 1 kts | 199° |
| 2026-04-23 18:42 | 39.17782 | 23.50271 | 40 ft | 8 kts | 196° |
| 2026-04-23 18:42 | 39.17742 | 23.50256 | 40 ft | 3 kts | 208° |
| 2026-04-23 18:42 | 39.17770 | 23.50209 | 41 ft | 9 kts | 343° |
| 2026-04-23 18:42 | 39.17818 | 23.50178 | 41 ft | 7 kts | 326° |
| 2026-04-23 18:43 | 39.17823 | 23.50174 | 41 ft | 0 kts | 326° |
| 2026-04-23 18:46 | 39.17824 | 23.50174 | 41 ft | 0 kts | 326° |
| 2026-04-23 18:46 | 39.17825 | 23.50173 | 41 ft | 0 kts | 326° |
| 2026-04-23 18:47 | 39.17826 | 23.50172 | 41 ft | 0 kts | 326° |